sensor_id;sensor_type;location;lat;lon;timestamp;pressure;altitude;pressure_sealevel;temperature
49593;BMP280;35499;51.482;4.264;2023-10-31T00:01:47;99704.81;;;11.21
49593;BMP280;35499;51.482;4.264;2023-10-31T00:04:14;99703.88;;;11.24
49593;BMP280;35499;51.482;4.264;2023-10-31T00:06:39;99697.00;;;11.26
49593;BMP280;35499;51.482;4.264;2023-10-31T00:09:04;99708.06;;;11.27
49593;BMP280;35499;51.482;4.264;2023-10-31T00:11:30;99705.50;;;11.27
49593;BMP280;35499;51.482;4.264;2023-10-31T00:13:55;99717.47;;;11.28
49593;BMP280;35499;51.482;4.264;2023-10-31T00:16:20;99708.03;;;11.29
49593;BMP280;35499;51.482;4.264;2023-10-31T00:18:45;99703.72;;;11.29
49593;BMP280;35499;51.482;4.264;2023-10-31T00:21:11;99715.69;;;11.30
49593;BMP280;35499;51.482;4.264;2023-10-31T00:23:43;99707.91;;;11.32
49593;BMP280;35499;51.482;4.264;2023-10-31T00:26:08;99715.63;;;11.32
49593;BMP280;35499;51.482;4.264;2023-10-31T00:28:35;99713.03;;;11.32
49593;BMP280;35499;51.482;4.264;2023-10-31T00:31:00;99717.25;;;11.34
49593;BMP280;35499;51.482;4.264;2023-10-31T00:33:25;99731.78;;;11.35
49593;BMP280;35499;51.482;4.264;2023-10-31T00:35:51;99734.28;;;11.37
49593;BMP280;35499;51.482;4.264;2023-10-31T00:38:16;99734.22;;;11.38
49593;BMP280;35499;51.482;4.264;2023-10-31T00:40:41;99731.63;;;11.40
49593;BMP280;35499;51.482;4.264;2023-10-31T00:43:06;99740.09;;;11.42
49593;BMP280;35499;51.482;4.264;2023-10-31T00:45:32;99736.66;;;11.43
49593;BMP280;35499;51.482;4.264;2023-10-31T00:47:57;99738.34;;;11.44
49593;BMP280;35499;51.482;4.264;2023-10-31T00:50:22;99735.72;;;11.45
49593;BMP280;35499;51.482;4.264;2023-10-31T00:52:47;99739.19;;;11.44
49593;BMP280;35499;51.482;4.264;2023-10-31T00:55:13;99757.13;;;11.45
49593;BMP280;35499;51.482;4.264;2023-10-31T00:57:38;99754.59;;;11.44
49593;BMP280;35499;51.482;4.264;2023-10-31T01:00:03;99752.88;;;11.45
49593;BMP280;35499;51.482;4.264;2023-10-31T01:02:29;99759.72;;;11.44
49593;BMP280;35499;51.482;4.264;2023-10-31T01:04:54;99760.63;;;11.43
49593;BMP280;35499;51.482;4.264;2023-10-31T01:07:19;99764.88;;;11.44
49593;BMP280;35499;51.482;4.264;2023-10-31T01:09:45;99767.50;;;11.43
49593;BMP280;35499;51.482;4.264;2023-10-31T01:12:10;99769.22;;;11.42
49593;BMP280;35499;51.482;4.264;2023-10-31T01:14:36;99776.03;;;11.43
49593;BMP280;35499;51.482;4.264;2023-10-31T01:17:01;99781.31;;;11.40
49593;BMP280;35499;51.482;4.264;2023-10-31T01:19:26;99786.38;;;11.42
49593;BMP280;35499;51.482;4.264;2023-10-31T01:21:52;99787.22;;;11.42
49593;BMP280;35499;51.482;4.264;2023-10-31T01:24:17;99785.53;;;11.41
49593;BMP280;35499;51.482;4.264;2023-10-31T01:26:42;99788.09;;;11.41
49593;BMP280;35499;51.482;4.264;2023-10-31T01:29:07;99788.06;;;11.43
49593;BMP280;35499;51.482;4.264;2023-10-31T01:31:33;99788.94;;;11.42
49593;BMP280;35499;51.482;4.264;2023-10-31T01:33:59;99793.22;;;11.41
49593;BMP280;35499;51.482;4.264;2023-10-31T01:36:25;99790.66;;;11.41
49593;BMP280;35499;51.482;4.264;2023-10-31T01:38:51;99788.16;;;11.40
49593;BMP280;35499;51.482;4.264;2023-10-31T01:41:17;99799.28;;;11.40
49593;BMP280;35499;51.482;4.264;2023-10-31T01:43:42;99795.91;;;11.38
49593;BMP280;35499;51.482;4.264;2023-10-31T01:46:07;99813.03;;;11.39
49593;BMP280;35499;51.482;4.264;2023-10-31T01:48:33;99805.34;;;11.38
49593;BMP280;35499;51.482;4.264;2023-10-31T01:51:00;99809.66;;;11.37
49593;BMP280;35499;51.482;4.264;2023-10-31T01:53:26;99807.19;;;11.34
49593;BMP280;35499;51.482;4.264;2023-10-31T01:55:54;99811.50;;;11.34
49593;BMP280;35499;51.482;4.264;2023-10-31T01:58:23;99812.38;;;11.33
49593;BMP280;35499;51.482;4.264;2023-10-31T02:00:51;99810.78;;;11.30
49593;BMP280;35499;51.482;4.264;2023-10-31T02:03:16;99815.06;;;11.30
49593;BMP280;35499;51.482;4.264;2023-10-31T02:05:42;99809.97;;;11.28
49593;BMP280;35499;51.482;4.264;2023-10-31T02:08:07;99812.53;;;11.27
49593;BMP280;35499;51.482;4.264;2023-10-31T02:10:33;99809.19;;;11.25
49593;BMP280;35499;51.482;4.264;2023-10-31T02:13:10;99804.16;;;11.22
49593;BMP280;35499;51.482;4.264;2023-10-31T02:15:35;99809.34;;;11.21
49593;BMP280;35499;51.482;4.264;2023-10-31T02:18:00;99812.84;;;11.18
49593;BMP280;35499;51.482;4.264;2023-10-31T02:20:25;99806.97;;;11.15
49593;BMP280;35499;51.482;4.264;2023-10-31T02:22:51;99801.06;;;11.11
49593;BMP280;35499;51.482;4.264;2023-10-31T02:25:17;99809.69;;;11.10
49593;BMP280;35499;51.482;4.264;2023-10-31T02:27:43;99807.16;;;11.09
49593;BMP280;35499;51.482;4.264;2023-10-31T02:30:08;99815.72;;;11.09
49593;BMP280;35499;51.482;4.264;2023-10-31T02:32:34;99808.84;;;11.10
49593;BMP280;35499;51.482;4.264;2023-10-31T02:34:59;99809.69;;;11.10
49593;BMP280;35499;51.482;4.264;2023-10-31T02:37:24;99805.38;;;11.11
49593;BMP280;35499;51.482;4.264;2023-10-31T02:39:49;99815.66;;;11.11
49593;BMP280;35499;51.482;4.264;2023-10-31T02:42:14;99814.84;;;11.10
49593;BMP280;35499;51.482;4.264;2023-10-31T02:44:40;99821.69;;;11.10
49593;BMP280;35499;51.482;4.264;2023-10-31T02:47:05;99830.25;;;11.10
49593;BMP280;35499;51.482;4.264;2023-10-31T02:49:30;99830.19;;;11.12
49593;BMP280;35499;51.482;4.264;2023-10-31T02:51:56;99825.94;;;11.11
49593;BMP280;35499;51.482;4.264;2023-10-31T02:54:21;99827.63;;;11.12
49593;BMP280;35499;51.482;4.264;2023-10-31T02:56:46;99823.31;;;11.12
49593;BMP280;35499;51.482;4.264;2023-10-31T02:59:11;99824.16;;;11.13
49593;BMP280;35499;51.482;4.264;2023-10-31T03:01:37;99825.84;;;11.14
49593;BMP280;35499;51.482;4.264;2023-10-31T03:04:02;99825.84;;;11.14
49593;BMP280;35499;51.482;4.264;2023-10-31T03:06:27;99826.69;;;11.14
49593;BMP280;35499;51.482;4.264;2023-10-31T03:08:53;99830.09;;;11.15
49593;BMP280;35499;51.482;4.264;2023-10-31T03:11:24;99834.31;;;11.16
49593;BMP280;35499;51.482;4.264;2023-10-31T03:13:50;99835.16;;;11.16
49593;BMP280;35499;51.482;4.264;2023-10-31T03:16:15;99845.41;;;11.18
49593;BMP280;35499;51.482;4.264;2023-10-31T03:18:40;99859.00;;;11.21
49593;BMP280;35499;51.482;4.264;2023-10-31T03:21:06;99857.25;;;11.22
49593;BMP280;35499;51.482;4.264;2023-10-31T03:23:31;99861.44;;;11.26
49593;BMP280;35499;51.482;4.264;2023-10-31T03:25:56;99864.88;;;11.25
49593;BMP280;35499;51.482;4.264;2023-10-31T03:28:21;99869.19;;;11.24
49593;BMP280;35499;51.482;4.264;2023-10-31T03:30:49;99875.16;;;11.25
49593;BMP280;35499;51.482;4.264;2023-10-31T03:33:15;99879.44;;;11.26
49593;BMP280;35499;51.482;4.264;2023-10-31T03:35:41;99888.78;;;11.26
49593;BMP280;35499;51.482;4.264;2023-10-31T03:38:06;99891.38;;;11.26
49593;BMP280;35499;51.482;4.264;2023-10-31T03:40:32;99892.19;;;11.28
49593;BMP280;35499;51.482;4.264;2023-10-31T03:42:57;99900.72;;;11.30
49593;BMP280;35499;51.482;4.264;2023-10-31T03:45:22;99904.06;;;11.32
49593;BMP280;35499;51.482;4.264;2023-10-31T03:47:47;99910.03;;;11.33
49593;BMP280;35499;51.482;4.264;2023-10-31T03:50:12;99912.66;;;11.31
49593;BMP280;35499;51.482;4.264;2023-10-31T03:52:38;99914.34;;;11.32
49593;BMP280;35499;51.482;4.264;2023-10-31T03:55:03;99902.44;;;11.30
49593;BMP280;35499;51.482;4.264;2023-10-31T03:57:29;99905.03;;;11.28
49593;BMP280;35499;51.482;4.264;2023-10-31T03:59:54;99916.22;;;11.27
49593;BMP280;35499;51.482;4.264;2023-10-31T04:02:19;99917.13;;;11.25
49593;BMP280;35499;51.482;4.264;2023-10-31T04:04:44;99920.63;;;11.23
49593;BMP280;35499;51.482;4.264;2023-10-31T04:07:10;99926.63;;;11.22
49593;BMP280;35499;51.482;4.264;2023-10-31T04:09:35;99919.84;;;11.21
49593;BMP280;35499;51.482;4.264;2023-10-31T04:12:00;99925.03;;;11.19
49593;BMP280;35499;51.482;4.264;2023-10-31T04:14:26;99924.19;;;11.19
49593;BMP280;35499;51.482;4.264;2023-10-31T04:16:51;99927.63;;;11.18
49593;BMP280;35499;51.482;4.264;2023-10-31T04:19:16;99930.19;;;11.18
49593;BMP280;35499;51.482;4.264;2023-10-31T04:21:41;99926.81;;;11.16
49593;BMP280;35499;51.482;4.264;2023-10-31T04:24:07;99922.59;;;11.15
49593;BMP280;35499;51.482;4.264;2023-10-31T04:26:32;99923.44;;;11.15
49593;BMP280;35499;51.482;4.264;2023-10-31T04:28:57;99926.94;;;11.13
49593;BMP280;35499;51.482;4.264;2023-10-31T04:31:23;99920.94;;;11.12
49593;BMP280;35499;51.482;4.264;2023-10-31T04:33:48;99929.59;;;11.10
49593;BMP280;35499;51.482;4.264;2023-10-31T04:36:13;99937.38;;;11.07
49593;BMP280;35499;51.482;4.264;2023-10-31T04:38:38;99940.84;;;11.06
49593;BMP280;35499;51.482;4.264;2023-10-31T04:41:03;99935.75;;;11.05
49593;BMP280;35499;51.482;4.264;2023-10-31T04:43:29;99946.06;;;11.03
49593;BMP280;35499;51.482;4.264;2023-10-31T04:45:54;99949.59;;;11.01
49593;BMP280;35499;51.482;4.264;2023-10-31T04:48:19;99962.44;;;11.01
49593;BMP280;35499;51.482;4.264;2023-10-31T04:50:45;99959.91;;;10.99
49593;BMP280;35499;51.482;4.264;2023-10-31T04:53:10;99963.31;;;11.00
49593;BMP280;35499;51.482;4.264;2023-10-31T04:55:35;99969.31;;;11.00
49593;BMP280;35499;51.482;4.264;2023-10-31T04:58:00;99971.88;;;11.00
49593;BMP280;35499;51.482;4.264;2023-10-31T05:00:26;99970.19;;;10.99
49593;BMP280;35499;51.482;4.264;2023-10-31T05:02:51;99977.91;;;10.98
49593;BMP280;35499;51.482;4.264;2023-10-31T05:05:16;99980.53;;;10.96
49593;BMP280;35499;51.482;4.264;2023-10-31T05:07:41;99978.88;;;10.95
49593;BMP280;35499;51.482;4.264;2023-10-31T05:10:07;99972.88;;;10.95
49593;BMP280;35499;51.482;4.264;2023-10-31T05:12:32;99971.09;;;10.97
49593;BMP280;35499;51.482;4.264;2023-10-31T05:14:58;99975.34;;;10.98
49593;BMP280;35499;51.482;4.264;2023-10-31T05:17:23;99973.53;;;11.01
49593;BMP280;35499;51.482;4.264;2023-10-31T05:19:48;99976.91;;;11.03
49593;BMP280;35499;51.482;4.264;2023-10-31T05:22:14;99984.47;;;11.08
49593;BMP280;35499;51.482;4.264;2023-10-31T05:24:39;99988.69;;;11.10
49593;BMP280;35499;51.482;4.264;2023-10-31T05:27:04;99985.16;;;11.14
49593;BMP280;35499;51.482;4.264;2023-10-31T05:29:32;99985.97;;;11.14
49593;BMP280;35499;51.482;4.264;2023-10-31T05:31:57;99979.06;;;11.16
49593;BMP280;35499;51.482;4.264;2023-10-31T05:34:23;99984.09;;;11.21
49593;BMP280;35499;51.482;4.264;2023-10-31T05:36:48;99988.31;;;11.22
49593;BMP280;35499;51.482;4.264;2023-10-31T05:39:13;99988.28;;;11.23
49593;BMP280;35499;51.482;4.264;2023-10-31T05:41:40;99988.25;;;11.25
49593;BMP280;35499;51.482;4.264;2023-10-31T05:44:06;99984.84;;;11.23
49593;BMP280;35499;51.482;4.264;2023-10-31T05:46:31;99982.28;;;11.23
49593;BMP280;35499;51.482;4.264;2023-10-31T05:48:57;99992.69;;;11.20
49593;BMP280;35499;51.482;4.264;2023-10-31T05:51:22;99984.16;;;11.18
49593;BMP280;35499;51.482;4.264;2023-10-31T05:53:48;99991.91;;;11.16
49593;BMP280;35499;51.482;4.264;2023-10-31T05:56:14;99984.28;;;11.13
49593;BMP280;35499;51.482;4.264;2023-10-31T05:58:41;99993.84;;;11.10
49593;BMP280;35499;51.482;4.264;2023-10-31T06:01:06;100010.16;;;11.08
49593;BMP280;35499;51.482;4.264;2023-10-31T06:03:33;100010.25;;;11.05
49593;BMP280;35499;51.482;4.264;2023-10-31T06:05:59;100010.34;;;11.02
49593;BMP280;35499;51.482;4.264;2023-10-31T06:08:24;100007.03;;;10.98
49593;BMP280;35499;51.482;4.264;2023-10-31T06:10:52;100014.00;;;10.93
49593;BMP280;35499;51.482;4.264;2023-10-31T06:13:17;100010.78;;;10.87
49593;BMP280;35499;51.482;4.264;2023-10-31T06:15:43;100020.41;;;10.81
49593;BMP280;35499;51.482;4.264;2023-10-31T06:18:09;100023.97;;;10.75
49593;BMP280;35499;51.482;4.264;2023-10-31T06:20:34;100030.13;;;10.70
49593;BMP280;35499;51.482;4.264;2023-10-31T06:23:01;100030.25;;;10.66
49593;BMP280;35499;51.482;4.264;2023-10-31T06:25:28;100033.81;;;10.60
49593;BMP280;35499;51.482;4.264;2023-10-31T06:27:53;100033.09;;;10.55
49593;BMP280;35499;51.482;4.264;2023-10-31T06:30:19;100036.66;;;10.50
49593;BMP280;35499;51.482;4.264;2023-10-31T06:32:44;100040.13;;;10.48
49593;BMP280;35499;51.482;4.264;2023-10-31T06:35:09;100049.66;;;10.44
49593;BMP280;35499;51.482;4.264;2023-10-31T06:37:35;100053.09;;;10.43
49593;BMP280;35499;51.482;4.264;2023-10-31T06:40:01;100065.06;;;10.43
49593;BMP280;35499;51.482;4.264;2023-10-31T06:42:26;100068.50;;;10.42
49593;BMP280;35499;51.482;4.264;2023-10-31T06:44:51;100073.63;;;10.43
49593;BMP280;35499;51.482;4.264;2023-10-31T06:47:17;100058.22;;;10.43
49593;BMP280;35499;51.482;4.264;2023-10-31T06:49:42;100062.50;;;10.43
49593;BMP280;35499;51.482;4.264;2023-10-31T06:52:07;100060.81;;;10.42
49593;BMP280;35499;51.482;4.264;2023-10-31T06:54:32;100071.09;;;10.42
49593;BMP280;35499;51.482;4.264;2023-10-31T06:56:59;100075.38;;;10.41
49593;BMP280;35499;51.482;4.264;2023-10-31T06:59:26;100067.72;;;10.40
49593;BMP280;35499;51.482;4.264;2023-10-31T07:01:52;100080.56;;;10.40
49593;BMP280;35499;51.482;4.264;2023-10-31T07:04:18;100071.16;;;10.39
49593;BMP280;35499;51.482;4.264;2023-10-31T07:06:43;100079.75;;;10.38
49593;BMP280;35499;51.482;4.264;2023-10-31T07:09:08;100085.75;;;10.37
49593;BMP280;35499;51.482;4.264;2023-10-31T07:11:34;100091.72;;;10.37
49593;BMP280;35499;51.482;4.264;2023-10-31T07:14:03;100090.03;;;10.37
49593;BMP280;35499;51.482;4.264;2023-10-31T07:16:29;100095.22;;;10.35
49593;BMP280;35499;51.482;4.264;2023-10-31T07:18:54;100095.16;;;10.37
49593;BMP280;35499;51.482;4.264;2023-10-31T07:21:20;100101.16;;;10.37
49593;BMP280;35499;51.482;4.264;2023-10-31T07:23:45;100096.84;;;10.39
49593;BMP280;35499;51.482;4.264;2023-10-31T07:26:10;100092.56;;;10.39
49593;BMP280;35499;51.482;4.264;2023-10-31T07:28:36;100095.91;;;10.41
49593;BMP280;35499;51.482;4.264;2023-10-31T07:31:01;100098.44;;;10.43
49593;BMP280;35499;51.482;4.264;2023-10-31T07:33:26;100101.81;;;10.45
49593;BMP280;35499;51.482;4.264;2023-10-31T07:35:52;100096.56;;;10.49
49593;BMP280;35499;51.482;4.264;2023-10-31T07:38:17;100101.59;;;10.54
49593;BMP280;35499;51.482;4.264;2023-10-31T07:40:43;100103.16;;;10.59
49593;BMP280;35499;51.482;4.264;2023-10-31T07:43:08;100104.59;;;10.69
49593;BMP280;35499;51.482;4.264;2023-10-31T07:45:33;100102.72;;;10.75
49593;BMP280;35499;51.482;4.264;2023-10-31T07:47:58;100116.94;;;10.86
49593;BMP280;35499;51.482;4.264;2023-10-31T07:50:24;100112.63;;;10.88
49593;BMP280;35499;51.482;4.264;2023-10-31T07:52:49;100115.94;;;10.91
49593;BMP280;35499;51.482;4.264;2023-10-31T07:55:14;100121.03;;;10.94
49593;BMP280;35499;51.482;4.264;2023-10-31T07:57:39;100119.31;;;10.93
49593;BMP280;35499;51.482;4.264;2023-10-31T08:00:09;100112.63;;;10.88
49593;BMP280;35499;51.482;4.264;2023-10-31T08:02:35;100122.06;;;10.86
49593;BMP280;35499;51.482;4.264;2023-10-31T08:05:01;100124.78;;;10.82
49593;BMP280;35499;51.482;4.264;2023-10-31T08:07:26;100132.63;;;10.76
49593;BMP280;35499;51.482;4.264;2023-10-31T08:09:55;100134.41;;;10.74
49593;BMP280;35499;51.482;4.264;2023-10-31T08:12:21;100143.81;;;10.75
49593;BMP280;35499;51.482;4.264;2023-10-31T08:14:46;100149.06;;;10.71
49593;BMP280;35499;51.482;4.264;2023-10-31T08:17:11;100142.38;;;10.65
49593;BMP280;35499;51.482;4.264;2023-10-31T08:19:36;100150.91;;;10.66
49593;BMP280;35499;51.482;4.264;2023-10-31T08:22:02;100147.50;;;10.65
49593;BMP280;35499;51.482;4.264;2023-10-31T08:24:27;100147.50;;;10.65
49593;BMP280;35499;51.482;4.264;2023-10-31T08:26:52;100145.72;;;10.67
49593;BMP280;35499;51.482;4.264;2023-10-31T08:29:18;100151.56;;;10.72
49593;BMP280;35499;51.482;4.264;2023-10-31T08:31:43;100160.00;;;10.77
49593;BMP280;35499;51.482;4.264;2023-10-31T08:34:08;100150.56;;;10.79
49593;BMP280;35499;51.482;4.264;2023-10-31T08:36:34;100159.09;;;10.79
49593;BMP280;35499;51.482;4.264;2023-10-31T08:38:59;100144.47;;;10.81
49593;BMP280;35499;51.482;4.264;2023-10-31T08:41:24;100158.97;;;10.84
49593;BMP280;35499;51.482;4.264;2023-10-31T08:43:49;100174.38;;;10.84
49593;BMP280;35499;51.482;4.264;2023-10-31T08:46:15;100168.38;;;10.85
49593;BMP280;35499;51.482;4.264;2023-10-31T08:48:40;100175.06;;;10.90
49593;BMP280;35499;51.482;4.264;2023-10-31T08:51:05;100174.13;;;10.94
49593;BMP280;35499;51.482;4.264;2023-10-31T08:53:31;100181.69;;;10.98
49593;BMP280;35499;51.482;4.264;2023-10-31T08:55:56;100185.97;;;10.99
49593;BMP280;35499;51.482;4.264;2023-10-31T08:58:21;100180.78;;;11.01
49593;BMP280;35499;51.482;4.264;2023-10-31T09:00:47;100177.25;;;11.05
49593;BMP280;35499;51.482;4.264;2023-10-31T09:03:12;100178.81;;;11.10
49593;BMP280;35499;51.482;4.264;2023-10-31T09:05:37;100177.81;;;11.15
49593;BMP280;35499;51.482;4.264;2023-10-31T09:08:02;100182.09;;;11.15
49593;BMP280;35499;51.482;4.264;2023-10-31T09:10:28;100190.59;;;11.17
49593;BMP280;35499;51.482;4.264;2023-10-31T09:12:53;100199.81;;;11.25
49593;BMP280;35499;51.482;4.264;2023-10-31T09:15:18;100192.88;;;11.28
49593;BMP280;35499;51.482;4.264;2023-10-31T09:17:46;100203.88;;;11.33
49593;BMP280;35499;51.482;4.264;2023-10-31T09:20:12;100206.38;;;11.36
49593;BMP280;35499;51.482;4.264;2023-10-31T09:22:38;100201.50;;;11.56
49593;BMP280;35499;51.482;4.264;2023-10-31T09:25:04;100195.53;;;11.85
49593;BMP280;35499;51.482;4.264;2023-10-31T09:27:29;100201.53;;;12.12
49593;BMP280;35499;51.482;4.264;2023-10-31T09:29:54;100197.31;;;12.36
49593;BMP280;35499;51.482;4.264;2023-10-31T09:32:19;100189.97;;;12.78
49593;BMP280;35499;51.482;4.264;2023-10-31T09:34:45;100197.56;;;13.06
49593;BMP280;35499;51.482;4.264;2023-10-31T09:37:10;100202.13;;;12.99
49593;BMP280;35499;51.482;4.264;2023-10-31T09:39:35;100195.59;;;12.89
49593;BMP280;35499;51.482;4.264;2023-10-31T09:42:01;100200.75;;;12.89
49593;BMP280;35499;51.482;4.264;2023-10-31T09:44:26;100204.25;;;12.87
49593;BMP280;35499;51.482;4.264;2023-10-31T09:46:51;100207.16;;;12.78
49593;BMP280;35499;51.482;4.264;2023-10-31T09:49:18;100208.38;;;12.67
49593;BMP280;35499;51.482;4.264;2023-10-31T09:51:46;100204.28;;;12.60
49593;BMP280;35499;51.482;4.264;2023-10-31T09:54:12;100209.38;;;12.63
49593;BMP280;35499;51.482;4.264;2023-10-31T09:56:40;100200.50;;;12.71
49593;BMP280;35499;51.482;4.264;2023-10-31T09:59:07;100202.53;;;12.87
49593;BMP280;35499;51.482;4.264;2023-10-31T10:04:33;100214.91;;;12.76
49593;BMP280;35499;51.482;4.264;2023-10-31T10:07:02;100216.97;;;12.66
49593;BMP280;35499;51.482;4.264;2023-10-31T10:09:27;100224.88;;;12.61
49593;BMP280;35499;51.482;4.264;2023-10-31T10:11:53;100236.09;;;12.59
49593;BMP280;35499;51.482;4.264;2023-10-31T10:14:20;100244.88;;;12.52
49593;BMP280;35499;51.482;4.264;2023-10-31T10:16:47;100241.72;;;12.44
49593;BMP280;35499;51.482;4.264;2023-10-31T10:19:19;100247.50;;;12.51
49593;BMP280;35499;51.482;4.264;2023-10-31T10:21:47;100240.69;;;12.76
49593;BMP280;35499;51.482;4.264;2023-10-31T10:24:12;100251.78;;;12.78
49593;BMP280;35499;51.482;4.264;2023-10-31T10:26:37;100249.53;;;12.95
49593;BMP280;35499;51.482;4.264;2023-10-31T10:29:03;100259.06;;;13.17
49593;BMP280;35499;51.482;4.264;2023-10-31T10:31:28;100259.88;;;13.19
49593;BMP280;35499;51.482;4.264;2023-10-31T10:33:54;100268.94;;;13.05
49593;BMP280;35499;51.482;4.264;2023-10-31T10:36:20;100265.75;;;12.97
49593;BMP280;35499;51.482;4.264;2023-10-31T10:38:46;100257.78;;;13.04
49593;BMP280;35499;51.482;4.264;2023-10-31T10:41:16;100254.88;;;13.14
49593;BMP280;35499;51.482;4.264;2023-10-31T10:43:44;100260.59;;;13.22
49593;BMP280;35499;51.482;4.264;2023-10-31T10:46:14;100265.72;;;13.24
49593;BMP280;35499;51.482;4.264;2023-10-31T10:48:44;100267.63;;;13.17
49593;BMP280;35499;51.482;4.264;2023-10-31T10:51:18;100267.06;;;13.09
49593;BMP280;35499;51.482;4.264;2023-10-31T10:53:51;100265.41;;;13.07
49593;BMP280;35499;51.482;4.264;2023-10-31T10:56:54;100270.00;;;12.99
49593;BMP280;35499;51.482;4.264;2023-10-31T10:59:32;100271.88;;;12.94
49593;BMP280;35499;51.482;4.264;2023-10-31T11:02:01;100286.81;;;12.84
49593;BMP280;35499;51.482;4.264;2023-10-31T11:04:30;100284.13;;;12.87
49593;BMP280;35499;51.482;4.264;2023-10-31T11:06:56;100271.22;;;12.88
49593;BMP280;35499;51.482;4.264;2023-10-31T11:09:23;100288.38;;;12.89
49593;BMP280;35499;51.482;4.264;2023-10-31T11:11:50;100297.06;;;12.85
49593;BMP280;35499;51.482;4.264;2023-10-31T11:14:16;100287.06;;;12.76
49593;BMP280;35499;51.482;4.264;2023-10-31T11:16:44;100288.00;;;12.74
49593;BMP280;35499;51.482;4.264;2023-10-31T11:19:11;100280.50;;;12.67
49593;BMP280;35499;51.482;4.264;2023-10-31T11:21:36;100278.06;;;12.62
49593;BMP280;35499;51.482;4.264;2023-10-31T11:24:01;100282.44;;;12.59
49593;BMP280;35499;51.482;4.264;2023-10-31T11:26:30;100279.94;;;12.56
49593;BMP280;35499;51.482;4.264;2023-10-31T11:29:05;100278.28;;;12.55
49593;BMP280;35499;51.482;4.264;2023-10-31T11:31:32;100279.94;;;12.56
49593;BMP280;35499;51.482;4.264;2023-10-31T11:34:00;100280.75;;;12.58
49593;BMP280;35499;51.482;4.264;2023-10-31T11:36:26;100279.81;;;12.60
49593;BMP280;35499;51.482;4.264;2023-10-31T11:39:13;100287.53;;;12.62
49593;BMP280;35499;51.482;4.264;2023-10-31T11:41:38;100283.22;;;12.62
49593;BMP280;35499;51.482;4.264;2023-10-31T11:44:04;100285.84;;;12.61
49593;BMP280;35499;51.482;4.264;2023-10-31T11:46:29;100284.09;;;12.61
49593;BMP280;35499;51.482;4.264;2023-10-31T11:48:55;100288.22;;;12.67
49593;BMP280;35499;51.482;4.264;2023-10-31T11:51:21;100284.63;;;12.72
49593;BMP280;35499;51.482;4.264;2023-10-31T11:53:48;100276.66;;;12.79
49593;BMP280;35499;51.482;4.264;2023-10-31T11:56:15;100284.28;;;12.82
49593;BMP280;35499;51.482;4.264;2023-10-31T11:58:40;100285.03;;;12.86
49593;BMP280;35499;51.482;4.264;2023-10-31T12:01:08;100278.06;;;12.89
49593;BMP280;35499;51.482;4.264;2023-10-31T12:03:43;100285.94;;;12.85
49593;BMP280;35499;51.482;4.264;2023-10-31T12:06:15;100288.38;;;12.89
49593;BMP280;35499;51.482;4.264;2023-10-31T12:08:42;100274.50;;;12.93
49593;BMP280;35499;51.482;4.264;2023-10-31T12:13:37;100285.44;;;12.99
49593;BMP280;35499;51.482;4.264;2023-10-31T12:16:03;100281.22;;;12.97
49593;BMP280;35499;51.482;4.264;2023-10-31T12:18:28;100301.94;;;12.94
49593;BMP280;35499;51.482;4.264;2023-10-31T12:20:54;100298.94;;;12.80
49593;BMP280;35499;51.482;4.264;2023-10-31T12:23:20;100311.34;;;12.70
49593;BMP280;35499;51.482;4.264;2023-10-31T12:25:47;100316.66;;;12.64
49593;BMP280;35499;51.482;4.264;2023-10-31T12:28:16;100322.06;;;12.55
49593;BMP280;35499;51.482;4.264;2023-10-31T12:30:46;100326.63;;;12.46
49593;BMP280;35499;51.482;4.264;2023-10-31T12:33:12;100326.72;;;12.43
49593;BMP280;35499;51.482;4.264;2023-10-31T12:35:38;100320.91;;;12.36
49593;BMP280;35499;51.482;4.264;2023-10-31T12:38:03;100326.22;;;12.31
49593;BMP280;35499;51.482;4.264;2023-10-31T12:40:29;100333.16;;;12.29
49593;BMP280;35499;51.482;4.264;2023-10-31T12:42:55;100323.91;;;12.22
49593;BMP280;35499;51.482;4.264;2023-10-31T12:45:20;100322.34;;;12.16
49593;BMP280;35499;51.482;4.264;2023-10-31T12:48:00;100319.16;;;12.10
49593;BMP280;35499;51.482;4.264;2023-10-31T12:50:27;100325.22;;;12.06
49593;BMP280;35499;51.482;4.264;2023-10-31T12:52:53;100321.06;;;12.02
49593;BMP280;35499;51.482;4.264;2023-10-31T12:55:21;100320.34;;;11.98
49593;BMP280;35499;51.482;4.264;2023-10-31T12:57:47;100325.50;;;11.98
49593;BMP280;35499;51.482;4.264;2023-10-31T13:00:14;100327.25;;;11.96
49593;BMP280;35499;51.482;4.264;2023-10-31T13:02:40;100335.94;;;11.92
49593;BMP280;35499;51.482;4.264;2023-10-31T13:05:09;100334.44;;;11.85
49593;BMP280;35499;51.482;4.264;2023-10-31T13:07:34;100328.66;;;11.77
49593;BMP280;35499;51.482;4.264;2023-10-31T13:10:00;100330.53;;;11.71
49593;BMP280;35499;51.482;4.264;2023-10-31T13:12:25;100339.16;;;11.70
49593;BMP280;35499;51.482;4.264;2023-10-31T13:14:52;100337.50;;;11.67
49593;BMP280;35499;51.482;4.264;2023-10-31T13:17:17;100326.47;;;11.63
49593;BMP280;35499;51.482;4.264;2023-10-31T13:19:42;100331.63;;;11.63
49593;BMP280;35499;51.482;4.264;2023-10-31T13:22:08;100332.50;;;11.62
49593;BMP280;35499;51.482;4.264;2023-10-31T13:24:34;100327.44;;;11.59
49593;BMP280;35499;51.482;4.264;2023-10-31T13:26:59;100336.03;;;11.58
49593;BMP280;35499;51.482;4.264;2023-10-31T13:29:25;100347.28;;;11.54
49593;BMP280;35499;51.482;4.264;2023-10-31T13:31:52;100350.00;;;11.49
49593;BMP280;35499;51.482;4.264;2023-10-31T13:34:18;100345.75;;;11.47
49593;BMP280;35499;51.482;4.264;2023-10-31T13:36:43;100338.09;;;11.45
49593;BMP280;35499;51.482;4.264;2023-10-31T13:39:09;100341.56;;;11.43
49593;BMP280;35499;51.482;4.264;2023-10-31T13:41:34;100329.59;;;11.42
49593;BMP280;35499;51.482;4.264;2023-10-31T13:43:59;100335.56;;;11.44
49593;BMP280;35499;51.482;4.264;2023-10-31T13:46:25;100332.13;;;11.44
49593;BMP280;35499;51.482;4.264;2023-10-31T13:48:50;100333.78;;;11.46
49593;BMP280;35499;51.482;4.264;2023-10-31T13:51:16;100339.75;;;11.46
49593;BMP280;35499;51.482;4.264;2023-10-31T13:53:42;100347.44;;;11.48
49593;BMP280;35499;51.482;4.264;2023-10-31T13:56:07;100349.16;;;11.49
49593;BMP280;35499;51.482;4.264;2023-10-31T13:58:33;100340.59;;;11.47
49593;BMP280;35499;51.482;4.264;2023-10-31T14:00:58;100339.72;;;11.48